Toco, Chile
Current Conditions -  °F | °C
As of 2:00 PM on Thursday 30 Oct 2014 (Local Time) from SCCF Reporting Station
Clear Clear  
Wind Chill: 73°   Ceiling: Unl
Heat Index: 73°   Visibility: 6mi
Dew Point: 14°   Wind: 21mph
Humidity: 10%   Direction: 260°W
Pressure: 30.21"   Gusts: NA
Location:  22.07°S, 69.59°W
Report Text: SCCF 301800Z 26018KT CAVOK 23/M10 Q1023
Loading
Personal Weather Stations






























Interactive Weather Map
Tropical Storm Tracking
New forecast layout! Learn more

10-Day Weather Forecast

Advertisements
Track Severe Weather on mobile